Time;durP1;ratioP1;P1;durP2;ratioP2;P2;SDS_P1;SDS_P2;PMS_P1;PMS_P2;Temp;Humidity;BMP_temperature;BMP_pressure;BME280_temperature;BME280_humidity;BME280_pressure;Samples;Min_cycle;Max_cycle;Signal;HPM_P1;HPM_P2
2022/11/01 00:01:32;;;;;;;21.58;14.20;;;;;;;;;;4972411;28;20066;-75
2022/11/01 00:03:58;;;;;;;27.27;12.80;;;;;;;;;;4981594;28;20031;-75
2022/11/01 00:06:25;;;;;;;23.75;13.00;;;;;;;;;;4969430;28;20038;-75
2022/11/01 00:08:51;;;;;;;18.75;12.48;;;;;;;;;;4970896;28;20026;-75
2022/11/01 00:11:17;;;;;;;17.98;11.18;;;;;;;;;;4963414;28;20159;-77
2022/11/01 00:13:45;;;;;;;17.45;11.40;;;;;;;;;;4980891;28;20043;-74
2022/11/01 00:16:11;;;;;;;18.48;10.55;;;;;;;;;;4969760;28;20042;-75
2022/11/01 00:18:37;;;;;;;17.02;11.80;;;;;;;;;;4982974;28;20023;-75
2022/11/01 00:21:03;;;;;;;14.98;9.38;;;;;;;;;;4971725;28;20122;-75
2022/11/01 00:23:29;;;;;;;16.35;10.80;;;;;;;;;;4966118;28;20026;-75
2022/11/01 00:25:59;;;;;;;13.23;8.95;;;;;;;;;;4986725;28;20066;-74
2022/11/01 00:28:25;;;;;;;14.40;9.80;;;;;;;;;;4964251;28;20027;-75
2022/11/01 00:30:54;;;;;;;19.05;10.10;;;;;;;;;;4969630;28;20042;-75
2022/11/01 00:33:20;;;;;;;17.00;10.18;;;;;;;;;;4960889;28;20023;-75
2022/11/01 00:35:47;;;;;;;15.18;10.00;;;;;;;;;;4970439;28;20110;-74
2022/11/01 00:38:14;;;;;;;15.07;11.13;;;;;;;;;;4970647;28;20093;-75
2022/11/01 00:40:40;;;;;;;13.18;8.88;;;;;;;;;;4976991;28;20026;-75
2022/11/01 00:43:06;;;;;;;13.40;8.45;;;;;;;;;;4975830;28;20559;-75
2022/11/01 00:45:32;;;;;;;10.07;7.22;;;;;;;;;;4964741;28;20667;-76
2022/11/01 00:47:58;;;;;;;9.43;6.78;;;;;;;;;;4985780;28;20022;-75
2022/11/01 00:50:24;;;;;;;6.85;5.60;;;;;;;;;;4967370;28;20030;-75
2022/11/01 00:52:50;;;;;;;8.40;5.93;;;;;;;;;;4965389;28;20027;-75
2022/11/01 00:55:17;;;;;;;6.93;5.32;;;;;;;;;;4968795;28;20722;-75
2022/11/01 00:57:46;;;;;;;6.53;5.55;;;;;;;;;;4970304;28;20516;-75
2022/11/01 01:00:13;;;;;;;10.13;6.78;;;;;;;;;;4972736;28;20078;-75
2022/11/01 01:02:39;;;;;;;7.60;5.35;;;;;;;;;;4970450;28;20027;-74
2022/11/01 01:05:05;;;;;;;9.63;6.88;;;;;;;;;;4959803;28;20523;-75
2022/11/01 01:07:31;;;;;;;7.88;6.38;;;;;;;;;;4969145;28;20422;-76
2022/11/01 01:09:58;;;;;;;9.88;7.53;;;;;;;;;;4972605;28;20065;-75
2022/11/01 01:12:24;;;;;;;14.40;8.68;;;;;;;;;;4976386;28;20041;-75
2022/11/01 01:14:50;;;;;;;12.23;8.55;;;;;;;;;;4970219;28;20077;-75
2022/11/01 01:17:17;;;;;;;11.60;7.47;;;;;;;;;;4970066;28;20114;-75
2022/11/01 01:19:43;;;;;;;8.63;6.80;;;;;;;;;;4967551;28;20038;-74
2022/11/01 01:22:09;;;;;;;7.95;5.93;;;;;;;;;;4969273;28;20037;-74
2022/11/01 01:24:35;;;;;;;6.57;5.03;;;;;;;;;;4974029;28;20022;-74
2022/11/01 01:27:02;;;;;;;6.15;4.85;;;;;;;;;;4967621;28;20118;-75
2022/11/01 01:29:28;;;;;;;8.77;5.90;;;;;;;;;;4972671;28;20019;-75
2022/11/01 01:31:54;;;;;;;6.25;5.57;;;;;;;;;;4977492;28;20045;-75
2022/11/01 01:34:20;;;;;;;5.50;4.50;;;;;;;;;;4961599;28;20070;-75
2022/11/01 01:36:47;;;;;;;6.65;5.05;;;;;;;;;;4971257;28;20099;-75
2022/11/01 01:39:13;;;;;;;5.35;4.40;;;;;;;;;;4970215;28;20042;-75
2022/11/01 01:41:54;;;;;;;5.05;4.10;;;;;;;;;;4972700;28;20089;-74
2022/11/01 01:44:39;;;;;;;7.63;4.50;;;;;;;;;;4967286;28;20030;-75
2022/11/01 01:47:05;;;;;;;6.70;4.75;;;;;;;;;;4970622;28;20021;-75
2022/11/01 01:49:31;;;;;;;5.22;3.85;;;;;;;;;;4969030;28;20110;-75
2022/11/01 01:51:58;;;;;;;6.72;4.47;;;;;;;;;;4968093;28;20033;-75
2022/11/01 01:54:24;;;;;;;6.18;4.65;;;;;;;;;;4968088;28;20554;-75
2022/11/01 01:56:50;;;;;;;6.05;4.20;;;;;;;;;;4982428;28;20047;-75
2022/11/01 01:59:16;;;;;;;7.65;4.65;;;;;;;;;;4969863;28;20234;-75
2022/11/01 02:01:42;;;;;;;7.28;5.22;;;;;;;;;;4966246;28;20050;-74
2022/11/01 02:04:15;;;;;;;7.78;5.95;;;;;;;;;;4972287;28;20484;-74
2022/11/01 02:06:41;;;;;;;7.68;5.30;;;;;;;;;;4966419;28;20547;-75
2022/11/01 02:09:08;;;;;;;9.60;6.25;;;;;;;;;;4962670;28;20022;-74
2022/11/01 02:11:35;;;;;;;7.18;5.47;;;;;;;;;;4966144;28;20031;-75
2022/11/01 02:14:01;;;;;;;8.45;5.75;;;;;;;;;;4972891;28;20080;-76
2022/11/01 02:16:43;;;;;;;10.68;5.70;;;;;;;;;;4967981;28;20046;-74
2022/11/01 02:19:30;;;;;;;7.47;6.00;;;;;;;;;;4969672;28;20030;-74
2022/11/01 02:22:02;;;;;;;9.07;5.45;;;;;;;;;;4961583;28;20023;-75
2022/11/01 02:24:35;;;;;;;7.15;4.90;;;;;;;;;;4966247;28;20030;-75
2022/11/01 02:27:06;;;;;;;7.15;4.70;;;;;;;;;;4964228;28;20031;-76
2022/11/01 02:29:50;;;;;;;6.72;4.07;;;;;;;;;;4980815;28;20085;-74
2022/11/01 02:32:40;;;;;;;6.75;3.95;;;;;;;;;;4970037;28;20033;-75
2022/11/01 02:35:13;;;;;;;3.72;3.30;;;;;;;;;;4964437;28;20039;-75
2022/11/01 02:37:39;;;;;;;4.05;3.55;;;;;;;;;;4970950;28;20031;-75
2022/11/01 02:40:11;;;;;;;6.90;3.55;;;;;;;;;;4973199;28;20448;-76
2022/11/01 02:42:45;;;;;;;7.95;4.60;;;;;;;;;;4967474;28;20037;-75
2022/11/01 02:45:32;;;;;;;5.90;3.70;;;;;;;;;;4973150;28;20026;-74
2022/11/01 02:47:59;;;;;;;8.02;4.22;;;;;;;;;;4972216;28;20024;-74
2022/11/01 02:50:27;;;;;;;4.72;3.53;;;;;;;;;;4974407;28;20030;-74
2022/11/01 02:52:54;;;;;;;5.88;3.30;;;;;;;;;;4971230;28;20496;-75
2022/11/01 02:55:32;;;;;;;4.50;3.42;;;;;;;;;;4957417;28;20037;-75
2022/11/01 02:58:04;;;;;;;3.28;2.90;;;;;;;;;;4970944;28;20080;-75
2022/11/01 03:00:32;;;;;;;4.97;3.10;;;;;;;;;;4970338;28;20146;-75
2022/11/01 03:03:04;;;;;;;6.22;3.55;;;;;;;;;;4974446;28;20042;-75
2022/11/01 03:05:39;;;;;;;4.00;2.90;;;;;;;;;;4975179;28;20018;-75
2022/11/01 03:08:10;;;;;;;3.75;3.38;;;;;;;;;;4970553;28;20405;-74
2022/11/01 03:10:44;;;;;;;4.57;2.92;;;;;;;;;;4972271;28;20022;-74
2022/11/01 03:13:31;;;;;;;6.60;3.33;;;;;;;;;;4984478;28;20023;-75
2022/11/01 03:16:17;;;;;;;3.05;2.35;;;;;;;;;;4972725;28;20101;-75
2022/11/01 03:18:57;;;;;;;6.82;3.50;;;;;;;;;;4970230;28;20128;-74
2022/11/01 03:21:25;;;;;;;3.65;2.55;;;;;;;;;;4974651;28;20027;-75
2022/11/01 03:23:56;;;;;;;3.72;2.65;;;;;;;;;;4966908;28;20023;-75
2022/11/01 03:26:27;;;;;;;6.00;2.83;;;;;;;;;;4970095;28;20037;-75
2022/11/01 03:28:56;;;;;;;4.05;2.90;;;;;;;;;;4978840;28;20388;-75
2022/11/01 03:31:25;;;;;;;5.22;2.85;;;;;;;;;;4972808;28;20037;-75
2022/11/01 03:33:57;;;;;;;5.03;2.60;;;;;;;;;;4973130;28;20043;-75
2022/11/01 03:36:25;;;;;;;3.60;2.72;;;;;;;;;;4972681;28;20472;-75
2022/11/01 03:38:54;;;;;;;3.60;2.78;;;;;;;;;;4972719;28;20046;-75
2022/11/01 03:41:21;;;;;;;2.38;2.10;;;;;;;;;;4978518;28;20405;-75
2022/11/01 03:43:47;;;;;;;4.43;2.40;;;;;;;;;;4961386;28;20022;-74
2022/11/01 03:46:15;;;;;;;4.00;2.60;;;;;;;;;;4967945;28;20023;-74
2022/11/01 03:48:41;;;;;;;5.78;2.58;;;;;;;;;;4970651;28;20081;-75
2022/11/01 03:51:07;;;;;;;4.68;2.70;;;;;;;;;;4963154;28;20145;-76
2022/11/01 03:53:33;;;;;;;4.20;2.63;;;;;;;;;;4970889;28;20464;-74
2022/11/01 03:56:01;;;;;;;3.78;2.58;;;;;;;;;;4970831;28;20039;-75
2022/11/01 03:58:40;;;;;;;4.28;2.30;;;;;;;;;;4960777;28;20053;-75
2022/11/01 04:01:06;;;;;;;4.63;2.60;;;;;;;;;;4987305;28;20042;-76
2022/11/01 04:03:33;;;;;;;6.45;2.70;;;;;;;;;;4968163;28;20023;-74
2022/11/01 04:05:59;;;;;;;3.38;2.50;;;;;;;;;;4968665;28;20034;-75
2022/11/01 04:08:25;;;;;;;4.45;2.42;;;;;;;;;;4967495;28;20022;-75
2022/11/01 04:10:51;;;;;;;3.97;2.47;;;;;;;;;;4969783;28;20039;-75
2022/11/01 04:13:17;;;;;;;3.97;2.30;;;;;;;;;;4957481;28;20039;-75
2022/11/01 04:21:14;;;;;;;5.85;2.50;;;;;;;;;;4965082;28;20077;-75
2022/11/01 04:23:40;;;;;;;4.40;2.63;;;;;;;;;;4970514;28;20535;-74
2022/11/01 04:26:06;;;;;;;5.10;2.47;;;;;;;;;;4972814;28;20027;-75
2022/11/01 04:28:33;;;;;;;5.30;2.70;;;;;;;;;;4972691;28;20027;-74
2022/11/01 04:30:59;;;;;;;6.95;3.38;;;;;;;;;;4976864;28;20463;-75
2022/11/01 04:33:25;;;;;;;5.97;3.17;;;;;;;;;;4964867;28;20066;-75
2022/11/01 04:35:51;;;;;;;7.22;3.42;;;;;;;;;;4983063;28;20467;-75
2022/11/01 04:38:17;;;;;;;6.90;3.03;;;;;;;;;;4972595;28;20110;-75
2022/11/01 04:40:43;;;;;;;2.60;2.40;;;;;;;;;;4966650;28;20031;-74
2022/11/01 04:43:11;;;;;;;5.55;2.45;;;;;;;;;;4965530;28;20026;-74
2022/11/01 04:45:37;;;;;;;5.35;2.92;;;;;;;;;;4968692;28;20019;-75
2022/11/01 04:48:07;;;;;;;2.70;2.00;;;;;;;;;;4970599;28;20035;-74
2022/11/01 04:50:34;;;;;;;18.08;3.13;;;;;;;;;;4957705;28;20037;-75
2022/11/01 04:53:01;;;;;;;3.50;2.65;;;;;;;;;;4975377;28;20093;-75
2022/11/01 04:55:28;;;;;;;4.55;2.50;;;;;;;;;;4973595;28;20519;-75
2022/11/01 04:57:54;;;;;;;7.90;2.60;;;;;;;;;;4971905;28;20149;-74
2022/11/01 05:00:21;;;;;;;6.93;2.63;;;;;;;;;;4971337;28;20042;-75
2022/11/01 05:02:48;;;;;;;3.40;2.33;;;;;;;;;;4965652;28;20467;-74
2022/11/01 05:05:14;;;;;;;4.93;2.70;;;;;;;;;;4966182;28;20023;-74
2022/11/01 05:07:40;;;;;;;4.45;2.78;;;;;;;;;;4967398;28;20043;-74
2022/11/01 05:10:07;;;;;;;6.07;2.63;;;;;;;;;;4968653;28;20054;-75
2022/11/01 05:12:33;;;;;;;5.18;2.42;;;;;;;;;;4974588;28;20464;-75
2022/11/01 05:14:59;;;;;;;9.32;2.80;;;;;;;;;;4969821;28;20029;-75
2022/11/01 05:17:26;;;;;;;4.95;2.88;;;;;;;;;;4965713;28;20632;-75
2022/11/01 05:19:52;;;;;;;6.68;2.35;;;;;;;;;;4978476;28;20089;-75
2022/11/01 05:22:18;;;;;;;6.45;2.65;;;;;;;;;;4970025;28;20110;-75
2022/11/01 05:24:44;;;;;;;9.07;2.97;;;;;;;;;;4981109;28;20027;-76
2022/11/01 05:27:10;;;;;;;5.00;2.78;;;;;;;;;;4965629;28;20435;-75
2022/11/01 05:29:36;;;;;;;6.68;2.53;;;;;;;;;;4978220;28;20042;-74
2022/11/01 05:32:02;;;;;;;7.85;3.05;;;;;;;;;;4972018;28;20491;-75
2022/11/01 05:34:29;;;;;;;9.18;2.78;;;;;;;;;;4971565;28;20027;-74
2022/11/01 05:36:55;;;;;;;5.10;2.75;;;;;;;;;;4961168;28;20031;-74
2022/11/01 05:39:21;;;;;;;6.40;2.47;;;;;;;;;;4959289;28;20486;-76
2022/11/01 05:41:47;;;;;;;10.23;2.90;;;;;;;;;;4983434;28;20030;-74
2022/11/01 05:44:13;;;;;;;7.88;2.58;;;;;;;;;;4980653;28;20041;-75
2022/11/01 05:46:39;;;;;;;6.25;2.33;;;;;;;;;;4968359;28;20021;-74
2022/11/01 05:49:05;;;;;;;5.43;2.38;;;;;;;;;;4980435;28;20034;-75
2022/11/01 05:51:31;;;;;;;8.80;3.03;;;;;;;;;;4972351;28;20074;-75
2022/11/01 05:53:57;;;;;;;8.93;2.85;;;;;;;;;;4975734;28;20444;-75
2022/11/01 05:56:23;;;;;;;6.18;2.67;;;;;;;;;;4956722;28;20031;-75
2022/11/01 05:58:50;;;;;;;6.88;3.00;;;;;;;;;;4969711;28;20018;-74
2022/11/01 06:01:16;;;;;;;13.25;3.10;;;;;;;;;;4978351;28;20030;-75
2022/11/01 06:03:42;;;;;;;9.27;2.97;;;;;;;;;;4970230;28;20113;-75
2022/11/01 06:06:09;;;;;;;7.53;3.50;;;;;;;;;;4966392;28;20025;-75
2022/11/01 06:08:35;;;;;;;8.10;2.63;;;;;;;;;;4971329;28;20022;-74
2022/11/01 06:11:02;;;;;;;12.55;3.35;;;;;;;;;;4964551;28;20030;-75
2022/11/01 06:13:28;;;;;;;6.10;2.95;;;;;;;;;;4976106;28;20027;-75
2022/11/01 06:15:59;;;;;;;12.68;2.90;;;;;;;;;;4972728;28;20569;-75
2022/11/01 06:18:25;;;;;;;9.88;2.83;;;;;;;;;;4967736;28;20476;-75
2022/11/01 06:20:51;;;;;;;8.77;2.35;;;;;;;;;;4970788;28;20027;-75
2022/11/01 06:23:17;;;;;;;8.05;2.60;;;;;;;;;;4984430;28;20027;-75
2022/11/01 06:25:43;;;;;;;8.68;3.08;;;;;;;;;;4981825;28;20033;-75
2022/11/01 06:28:10;;;;;;;7.93;2.60;;;;;;;;;;4970223;28;20019;-75
2022/11/01 06:30:39;;;;;;;4.65;2.63;;;;;;;;;;4966910;28;20027;-75
2022/11/01 06:33:08;;;;;;;4.43;2.60;;;;;;;;;;4967356;28;20035;-74
2022/11/01 06:35:34;;;;;;;4.70;2.28;;;;;;;;;;4968805;28;20031;-74
2022/11/01 06:38:07;;;;;;;5.97;2.55;;;;;;;;;;4963937;28;20897;-75
2022/11/01 06:40:34;;;;;;;8.40;2.63;;;;;;;;;;4969704;28;20516;-74
2022/11/01 06:43:01;;;;;;;7.55;2.65;;;;;;;;;;4975534;28;20110;-75
2022/11/01 06:45:27;;;;;;;7.80;2.53;;;;;;;;;;4970912;28;20019;-74
2022/11/01 06:47:54;;;;;;;4.95;2.58;;;;;;;;;;4955056;28;20090;-75
2022/11/01 06:50:20;;;;;;;5.22;2.50;;;;;;;;;;4961267;28;20028;-75
2022/11/01 06:52:46;;;;;;;8.80;2.58;;;;;;;;;;4960595;28;20027;-74
2022/11/01 06:55:12;;;;;;;5.45;2.55;;;;;;;;;;4963557;28;20416;-75
2022/11/01 06:57:38;;;;;;;11.05;2.78;;;;;;;;;;4981026;28;20047;-75
2022/11/01 07:00:04;;;;;;;7.35;2.60;;;;;;;;;;4964229;28;20627;-75
2022/11/01 07:02:30;;;;;;;10.90;3.28;;;;;;;;;;4973248;28;20019;-74
2022/11/01 07:04:57;;;;;;;7.72;3.00;;;;;;;;;;4989116;28;20035;-75
2022/11/01 07:07:23;;;;;;;8.32;2.60;;;;;;;;;;4970147;28;20117;-75
2022/11/01 07:09:49;;;;;;;9.90;3.00;;;;;;;;;;4972758;28;20354;-75
2022/11/01 07:12:15;;;;;;;5.35;2.60;;;;;;;;;;4960108;28;20502;-75
2022/11/01 07:14:41;;;;;;;13.00;2.97;;;;;;;;;;4984503;28;20027;-75
2022/11/01 07:17:08;;;;;;;8.32;2.70;;;;;;;;;;4964057;28;20133;-75
2022/11/01 07:19:34;;;;;;;10.88;4.20;;;;;;;;;;4970565;28;20019;-75
2022/11/01 07:22:00;;;;;;;8.93;3.38;;;;;;;;;;4969881;28;20078;-75
2022/11/01 07:24:26;;;;;;;4.55;2.58;;;;;;;;;;4976402;28;20551;-75
2022/11/01 07:26:52;;;;;;;11.60;3.22;;;;;;;;;;4966214;28;20033;-75
2022/11/01 07:29:19;;;;;;;6.35;2.60;;;;;;;;;;4972218;28;20090;-74
2022/11/01 07:31:46;;;;;;;4.20;2.97;;;;;;;;;;4974619;28;20025;-75
2022/11/01 07:34:12;;;;;;;5.88;2.65;;;;;;;;;;4973559;28;20031;-76
2022/11/01 07:36:38;;;;;;;5.05;2.22;;;;;;;;;;4989830;28;20023;-75
2022/11/01 07:39:05;;;;;;;7.18;2.35;;;;;;;;;;4990411;28;20023;-75
2022/11/01 07:41:31;;;;;;;9.18;2.92;;;;;;;;;;4968498;28;20031;-75
2022/11/01 07:43:57;;;;;;;13.98;4.22;;;;;;;;;;4980014;28;20101;-75
2022/11/01 07:46:23;;;;;;;9.75;2.60;;;;;;;;;;4986302;28;20510;-74
2022/11/01 07:48:50;;;;;;;6.07;2.40;;;;;;;;;;4971342;28;20027;-74
2022/11/01 07:51:16;;;;;;;7.07;2.70;;;;;;;;;;4973916;28;20479;-75
2022/11/01 07:53:42;;;;;;;6.93;2.38;;;;;;;;;;4969039;28;20034;-75
2022/11/01 07:56:09;;;;;;;8.02;2.10;;;;;;;;;;4990066;28;20097;-75
2022/11/01 07:58:35;;;;;;;7.55;2.28;;;;;;;;;;4968040;28;20568;-75
2022/11/01 08:01:01;;;;;;;6.60;2.70;;;;;;;;;;4974731;28;20027;-75
2022/11/01 08:03:27;;;;;;;5.85;2.42;;;;;;;;;;4973957;28;20691;-75
2022/11/01 08:05:55;;;;;;;7.57;2.22;;;;;;;;;;4970993;28;20027;-75
2022/11/01 08:08:21;;;;;;;5.65;2.53;;;;;;;;;;4973244;28;20029;-75
2022/11/01 08:10:47;;;;;;;9.45;2.58;;;;;;;;;;4970774;28;20039;-75
2022/11/01 08:13:13;;;;;;;11.88;2.72;;;;;;;;;;4965300;28;20035;-75
2022/11/01 08:15:39;;;;;;;8.48;2.65;;;;;;;;;;4972065;28;20110;-75
2022/11/01 08:18:05;;;;;;;8.93;3.10;;;;;;;;;;4970816;28;20026;-75
2022/11/01 08:20:32;;;;;;;5.95;2.38;;;;;;;;;;4985137;28;20555;-75
2022/11/01 08:22:58;;;;;;;9.30;3.92;;;;;;;;;;4974995;28;20064;-75
2022/11/01 08:25:24;;;;;;;7.80;2.72;;;;;;;;;;4977308;28;20481;-75
2022/11/01 08:27:50;;;;;;;11.75;3.47;;;;;;;;;;4966613;28;20501;-74
2022/11/01 08:30:17;;;;;;;14.27;3.28;;;;;;;;;;4974040;28;20460;-75
2022/11/01 08:32:44;;;;;;;7.13;2.10;;;;;;;;;;4991454;28;20038;-75
2022/11/01 08:35:13;;;;;;;10.25;3.38;;;;;;;;;;4971620;28;20038;-74
2022/11/01 08:37:51;;;;;;;7.55;3.17;;;;;;;;;;4973458;28;20058;-75
2022/11/01 08:40:18;;;;;;;7.80;2.60;;;;;;;;;;4967971;28;20526;-75
2022/11/01 08:42:44;;;;;;;8.93;2.88;;;;;;;;;;4978430;28;20033;-74
2022/11/01 08:45:11;;;;;;;12.35;2.63;;;;;;;;;;4971482;28;20078;-75
2022/11/01 08:47:37;;;;;;;4.70;2.88;;;;;;;;;;4970403;28;20022;-75
2022/11/01 08:50:04;;;;;;;7.38;2.30;;;;;;;;;;4962566;28;20082;-75
2022/11/01 08:52:31;;;;;;;11.27;3.05;;;;;;;;;;4962548;28;20019;-75
2022/11/01 08:54:57;;;;;;;7.65;3.38;;;;;;;;;;4963146;28;20023;-75
2022/11/01 08:57:23;;;;;;;11.52;3.83;;;;;;;;;;4980793;28;20519;-75
2022/11/01 08:59:49;;;;;;;10.93;3.80;;;;;;;;;;4966337;28;20022;-75
2022/11/01 09:02:15;;;;;;;10.50;2.85;;;;;;;;;;4978101;28;20788;-75
2022/11/01 09:04:41;;;;;;;8.52;3.72;;;;;;;;;;4971185;28;20030;-76
2022/11/01 09:07:07;;;;;;;9.50;3.55;;;;;;;;;;4974479;28;20022;-75
2022/11/01 09:09:33;;;;;;;7.93;3.20;;;;;;;;;;4973860;28;20062;-75
2022/11/01 09:11:59;;;;;;;11.63;3.10;;;;;;;;;;4987003;28;20380;-74
2022/11/01 09:14:26;;;;;;;9.00;2.85;;;;;;;;;;4965571;28;20050;-75
2022/11/01 09:16:52;;;;;;;10.95;3.83;;;;;;;;;;4972708;28;20023;-75
2022/11/01 09:19:18;;;;;;;9.23;2.60;;;;;;;;;;4965964;28;20026;-75
2022/11/01 09:21:45;;;;;;;14.65;3.65;;;;;;;;;;4981877;28;20392;-75
2022/11/01 09:24:11;;;;;;;10.38;3.45;;;;;;;;;;4969227;28;20469;-75
2022/11/01 09:26:37;;;;;;;8.07;2.92;;;;;;;;;;4960310;28;20050;-76
2022/11/01 09:29:04;;;;;;;6.28;3.38;;;;;;;;;;4984368;28;20022;-75
2022/11/01 09:31:30;;;;;;;12.02;3.90;;;;;;;;;;4970701;28;20029;-75
2022/11/01 09:33:57;;;;;;;6.63;3.45;;;;;;;;;;4977244;28;20031;-76
2022/11/01 09:36:24;;;;;;;11.45;3.80;;;;;;;;;;4971938;28;20054;-75
2022/11/01 09:38:50;;;;;;;8.70;3.13;;;;;;;;;;4978080;28;20027;-75
2022/11/01 09:41:16;;;;;;;14.70;3.25;;;;;;;;;;4971342;28;20057;-77
2022/11/01 09:43:43;;;;;;;12.75;4.28;;;;;;;;;;4977987;28;20054;-75
2022/11/01 09:46:12;;;;;;;11.27;3.10;;;;;;;;;;4969733;28;20075;-76
2022/11/01 09:48:40;;;;;;;6.53;2.80;;;;;;;;;;4963213;28;20023;-76
2022/11/01 09:51:12;;;;;;;12.93;4.00;;;;;;;;;;4970568;28;20067;-75
2022/11/01 09:53:39;;;;;;;10.93;3.55;;;;;;;;;;4970743;28;20082;-76
2022/11/01 09:56:08;;;;;;;7.82;2.38;;;;;;;;;;4969588;28;20035;-76
2022/11/01 09:58:35;;;;;;;12.77;2.70;;;;;;;;;;4982920;28;20105;-76
2022/11/01 10:01:11;;;;;;;8.43;2.60;;;;;;;;;;4961570;28;20078;-75
2022/11/01 10:03:42;;;;;;;10.15;2.90;;;;;;;;;;4970951;28;20027;-77
2022/11/01 10:06:19;;;;;;;9.63;3.97;;;;;;;;;;4972188;28;20027;-76
2022/11/01 10:08:57;;;;;;;7.38;2.88;;;;;;;;;;4993524;28;20051;-76
2022/11/01 10:11:37;;;;;;;8.10;2.92;;;;;;;;;;4969645;28;20034;-76
2022/11/01 10:14:22;;;;;;;10.32;2.55;;;;;;;;;;4964046;28;20046;-76
2022/11/01 10:17:09;;;;;;;13.85;3.25;;;;;;;;;;4968448;28;20030;-75
2022/11/01 10:19:36;;;;;;;10.48;3.05;;;;;;;;;;4966976;28;20488;-75
2022/11/01 10:22:11;;;;;;;9.77;3.15;;;;;;;;;;4990104;28;20037;-75
2022/11/01 10:24:49;;;;;;;14.65;3.17;;;;;;;;;;4960229;28;20041;-76
2022/11/01 10:27:17;;;;;;;12.60;4.72;;;;;;;;;;4980811;28;20034;-75
2022/11/01 10:29:59;;;;;;;14.23;3.55;;;;;;;;;;4967380;28;20026;-76
2022/11/01 10:32:32;;;;;;;13.23;4.35;;;;;;;;;;4966153;28;20030;-75
2022/11/01 10:35:01;;;;;;;7.97;3.25;;;;;;;;;;4968123;28;20499;-76
2022/11/01 10:37:33;;;;;;;13.55;3.90;;;;;;;;;;4962934;28;20039;-75
2022/11/01 10:40:01;;;;;;;15.60;3.72;;;;;;;;;;4971581;28;20411;-75
2022/11/01 10:42:28;;;;;;;14.68;3.63;;;;;;;;;;4963543;28;20502;-75
2022/11/01 10:45:01;;;;;;;9.50;4.82;;;;;;;;;;4970031;28;20050;-76
2022/11/01 10:47:27;;;;;;;12.98;3.15;;;;;;;;;;4962276;28;20082;-76
2022/11/01 10:49:57;;;;;;;10.77;3.13;;;;;;;;;;4966248;28;20054;-76
2022/11/01 10:52:25;;;;;;;9.32;2.78;;;;;;;;;;4965715;28;20070;-75
2022/11/01 10:54:52;;;;;;;9.50;3.28;;;;;;;;;;4968743;28;20062;-75
2022/11/01 10:57:37;;;;;;;15.68;3.10;;;;;;;;;;4973838;28;20078;-75
2022/11/01 11:00:05;;;;;;;10.68;4.10;;;;;;;;;;4971968;28;20042;-76
2022/11/01 11:02:35;;;;;;;8.90;2.90;;;;;;;;;;4965154;28;20023;-75
2022/11/01 11:05:01;;;;;;;12.05;3.50;;;;;;;;;;4970249;28;20118;-76
2022/11/01 11:07:30;;;;;;;10.50;3.63;;;;;;;;;;4964600;28;20030;-76
2022/11/01 11:09:56;;;;;;;11.48;3.78;;;;;;;;;;4968396;28;20031;-76
2022/11/01 11:12:23;;;;;;;13.25;3.70;;;;;;;;;;4969162;28;20034;-76
2022/11/01 11:14:52;;;;;;;11.82;3.65;;;;;;;;;;4967134;28;20031;-76
2022/11/01 11:17:24;;;;;;;8.35;3.40;;;;;;;;;;4972215;28;20453;-75
2022/11/01 11:19:52;;;;;;;13.63;3.40;;;;;;;;;;4966767;28;20042;-76
2022/11/01 11:22:20;;;;;;;12.00;3.20;;;;;;;;;;4967092;28;20114;-76
2022/11/01 11:24:46;;;;;;;11.38;2.90;;;;;;;;;;4970998;28;20023;-78
2022/11/01 11:27:32;;;;;;;9.98;3.60;;;;;;;;;;4962345;28;20015;-76
2022/11/01 11:30:06;;;;;;;16.08;4.80;;;;;;;;;;4961844;28;20038;-76
2022/11/01 11:32:33;;;;;;;10.93;3.58;;;;;;;;;;4967270;28;20015;-77
2022/11/01 11:35:15;;;;;;;15.63;4.18;;;;;;;;;;4986705;28;20062;-75
2022/11/01 11:37:51;;;;;;;9.20;3.00;;;;;;;;;;4968832;28;20538;-77
2022/11/01 11:40:44;;;;;;;11.73;3.58;;;;;;;;;;4980348;28;20042;-77
2022/11/01 11:43:24;;;;;;;16.40;4.60;;;;;;;;;;4967683;28;20057;-77
2022/11/01 11:46:05;;;;;;;15.98;4.55;;;;;;;;;;4984208;28;20038;-77
2022/11/01 11:48:31;;;;;;;18.08;3.80;;;;;;;;;;4970912;28;20030;-77
2022/11/01 11:51:08;;;;;;;11.82;4.13;;;;;;;;;;4971517;28;20049;-77
2022/11/01 11:53:34;;;;;;;11.70;4.43;;;;;;;;;;4978170;28;20046;-77
2022/11/01 11:56:05;;;;;;;18.30;4.78;;;;;;;;;;4974876;28;20495;-77
2022/11/01 11:58:51;;;;;;;12.88;3.58;;;;;;;;;;4967164;28;20480;-77
2022/11/01 12:01:22;;;;;;;14.90;4.80;;;;;;;;;;4982104;28;20031;-77
2022/11/01 12:03:56;;;;;;;13.68;3.53;;;;;;;;;;4978223;28;20054;-77
2022/11/01 12:06:23;;;;;;;14.80;4.95;;;;;;;;;;4968050;28;20392;-77
2022/11/01 12:08:54;;;;;;;13.68;4.05;;;;;;;;;;4972576;28;20037;-81
2022/11/01 12:11:21;;;;;;;9.65;3.15;;;;;;;;;;4984748;28;20043;-77
2022/11/01 12:14:00;;;;;;;10.60;3.05;;;;;;;;;;4966993;28;20039;-77
2022/11/01 12:16:26;;;;;;;13.93;3.28;;;;;;;;;;4964264;28;20039;-78
2022/11/01 12:18:52;;;;;;;12.23;3.35;;;;;;;;;;4967514;28;20046;-77
2022/11/01 12:21:21;;;;;;;11.02;3.40;;;;;;;;;;4966075;28;20037;-77
2022/11/01 12:23:49;;;;;;;13.45;5.47;;;;;;;;;;4966052;28;20035;-77
2022/11/01 12:26:15;;;;;;;11.75;3.78;;;;;;;;;;4966323;28;20349;-79
2022/11/01 12:29:05;;;;;;;10.27;5.90;;;;;;;;;;4982394;28;20029;-77
2022/11/01 12:31:31;;;;;;;11.90;3.60;;;;;;;;;;4969065;28;20042;-78
2022/11/01 12:34:15;;;;;;;11.77;4.93;;;;;;;;;;4966818;28;20058;-78
2022/11/01 12:36:44;;;;;;;9.35;3.45;;;;;;;;;;4985647;28;20042;-79
2022/11/01 12:39:29;;;;;;;12.73;4.80;;;;;;;;;;4968150;28;20037;-78
2022/11/01 12:41:59;;;;;;;12.13;4.20;;;;;;;;;;4968226;28;20114;-78
2022/11/01 12:44:31;;;;;;;15.55;4.20;;;;;;;;;;4968353;28;20023;-77
2022/11/01 12:47:04;;;;;;;9.35;4.10;;;;;;;;;;4965385;28;20058;-79
2022/11/01 12:49:30;;;;;;;14.85;4.50;;;;;;;;;;4969694;28;20034;-78
2022/11/01 12:52:02;;;;;;;15.30;3.20;;;;;;;;;;4968877;28;20027;-78
2022/11/01 12:54:30;;;;;;;11.68;3.30;;;;;;;;;;4984241;28;20039;-80
2022/11/01 12:56:57;;;;;;;11.38;3.80;;;;;;;;;;4967499;28;20515;-78
2022/11/01 12:59:28;;;;;;;12.02;4.55;;;;;;;;;;4981210;28;20118;-78
2022/11/01 13:01:54;;;;;;;12.05;3.58;;;;;;;;;;4968105;28;20034;-78
2022/11/01 13:04:20;;;;;;;15.98;3.80;;;;;;;;;;4964091;28;20609;-78
2022/11/01 13:06:58;;;;;;;10.88;3.55;;;;;;;;;;4968805;28;20109;-78
2022/11/01 13:09:42;;;;;;;13.20;3.28;;;;;;;;;;4980736;28;20122;-79
2022/11/01 13:12:11;;;;;;;15.13;5.53;;;;;;;;;;4986288;28;20027;-79
2022/11/01 13:14:38;;;;;;;9.57;3.22;;;;;;;;;;4966437;28;20054;-79
2022/11/01 13:17:17;;;;;;;10.55;3.80;;;;;;;;;;4967488;28;20877;-81
2022/11/01 13:20:04;;;;;;;12.48;3.90;;;;;;;;;;4967160;28;20492;-80
2022/11/01 13:22:35;;;;;;;13.35;4.15;;;;;;;;;;4982615;28;20503;-80
2022/11/01 13:25:11;;;;;;;9.38;3.67;;;;;;;;;;4966825;28;20035;-78
2022/11/01 13:27:52;;;;;;;17.13;3.90;;;;;;;;;;4966928;28;20257;-79
2022/11/01 13:30:19;;;;;;;13.50;4.43;;;;;;;;;;4968874;28;20026;-80
2022/11/01 13:32:54;;;;;;;10.98;3.65;;;;;;;;;;4969147;28;20105;-82
2022/11/01 13:35:41;;;;;;;24.92;4.20;;;;;;;;;;4970634;28;20454;-80
2022/11/01 13:38:26;;;;;;;17.50;5.63;;;;;;;;;;4982527;28;20508;-79
2022/11/01 13:41:18;;;;;;;9.02;3.90;;;;;;;;;;4967295;28;20027;-80
2022/11/01 13:43:47;;;;;;;8.70;2.92;;;;;;;;;;4968157;28;20049;-80
2022/11/01 13:46:24;;;;;;;11.80;3.25;;;;;;;;;;4967519;28;20054;-80
2022/11/01 13:49:09;;;;;;;11.80;4.15;;;;;;;;;;4969353;28;20027;-86
2022/11/01 13:51:49;;;;;;;15.45;3.20;;;;;;;;;;4970740;28;20077;-79
2022/11/01 13:54:24;;;;;;;7.60;2.95;;;;;;;;;;4968933;28;20109;-80
2022/11/01 13:57:11;;;;;;;12.18;2.97;;;;;;;;;;4974050;28;20045;-78
2022/11/01 13:59:57;;;;;;;12.23;3.03;;;;;;;;;;4965513;28;20034;-78
2022/11/01 14:02:28;;;;;;;6.40;2.70;;;;;;;;;;4966792;28;20069;-79
2022/11/01 14:05:09;;;;;;;14.20;3.13;;;;;;;;;;4968249;28;20019;-78
2022/11/01 14:07:37;;;;;;;8.80;3.08;;;;;;;;;;4967906;28;20099;-78
2022/11/01 14:10:29;;;;;;;15.02;4.20;;;;;;;;;;4967617;28;20030;-78
2022/11/01 14:13:09;;;;;;;13.05;3.17;;;;;;;;;;4968055;28;20145;-80
2022/11/01 14:15:38;;;;;;;14.90;3.90;;;;;;;;;;4978287;28;20038;-79
2022/11/01 14:18:07;;;;;;;13.68;3.25;;;;;;;;;;4966223;28;20023;-79
2022/11/01 14:20:43;;;;;;;10.40;3.35;;;;;;;;;;4963979;28;20055;-78
2022/11/01 14:23:28;;;;;;;14.63;3.67;;;;;;;;;;4967507;28;20498;-81
2022/11/01 14:26:13;;;;;;;10.40;3.45;;;;;;;;;;4983369;28;20058;-80
2022/11/01 14:28:43;;;;;;;7.35;3.05;;;;;;;;;;4966508;28;20106;-79
2022/11/01 14:31:10;;;;;;;12.27;2.83;;;;;;;;;;4964439;28;20031;-80
2022/11/01 14:33:37;;;;;;;11.90;3.35;;;;;;;;;;4966195;28;20039;-81
2022/11/01 14:36:03;;;;;;;9.32;2.85;;;;;;;;;;4966461;28;20050;-78
2022/11/01 14:38:38;;;;;;;9.00;2.90;;;;;;;;;;4967000;28;20518;-78
2022/11/01 14:41:04;;;;;;;;;;;;;;;;;;4968576;28;20046;-78
2022/11/01 14:43:49;;;;;;;10.02;2.58;;;;;;;;;;4964018;28;19913;-77
2022/11/01 14:46:18;;;;;;;9.43;3.33;;;;;;;;;;4978543;28;20506;-77
2022/11/01 14:48:59;;;;;;;9.25;3.22;;;;;;;;;;4966235;28;20117;-77
2022/11/01 14:51:32;;;;;;;6.60;3.53;;;;;;;;;;4964422;28;20113;-77
2022/11/01 14:54:05;;;;;;;10.57;4.38;;;;;;;;;;4967178;28;20034;-77
2022/11/01 14:56:33;;;;;;;12.20;4.97;;;;;;;;;;4964804;28;20089;-77
2022/11/01 14:59:32;;;;;;;10.88;3.78;;;;;;;;;;4974583;28;20073;-77